Time;durP1;ratioP1;P1;durP2;ratioP2;P2;SDS_P1;SDS_P2;PMS_P1;PMS_P2;Temp;Humidity;BMP_temperature;BMP_pressure;BME280_temperature;BME280_humidity;BME280_pressure;Samples;Min_cycle;Max_cycle;Signal;HPM_P1;HPM_P2
2023/08/27 00:01:17;;;;;;;5.10;4.80;;;17.70;99.90;;;;;;5051239;28;20202;-55
2023/08/27 00:03:44;;;;;;;6.90;5.60;;;17.40;99.90;;;;;;5052859;28;20275;-54
2023/08/27 00:06:11;;;;;;;6.47;5.87;;;17.60;99.90;;;;;;5053303;28;20206;-54
2023/08/27 00:08:38;;;;;;;5.37;5.07;;;17.60;99.90;;;;;;5053652;28;20287;-54
2023/08/27 00:11:07;;;;;;;7.50;6.43;;;17.60;99.90;;;;;;5051891;28;20680;-54
2023/08/27 00:13:34;;;;;;;5.47;5.10;;;17.60;99.90;;;;;;5050880;28;20202;-54
2023/08/27 00:16:01;;;;;;;5.37;5.17;;;17.60;99.90;;;;;;5053865;28;20205;-54
2023/08/27 00:18:28;;;;;;;6.87;6.47;;;17.60;99.90;;;;;;5053543;28;20570;-55
2023/08/27 00:20:55;;;;;;;5.77;5.47;;;17.60;99.90;;;;;;5052779;28;20586;-55
2023/08/27 00:23:23;;;;;;;6.20;5.70;;;17.60;99.90;;;;;;5051091;28;20198;-55
2023/08/27 00:25:50;;;;;;;6.07;5.67;;;17.60;99.90;;;;;;5053243;28;20199;-54
2023/08/27 00:28:18;;;;;;;7.43;6.93;;;17.60;99.90;;;;;;5051999;28;20260;-55
2023/08/27 00:30:45;;;;;;;6.00;5.70;;;17.60;99.90;;;;;;5052236;28;20272;-54
2023/08/27 00:33:15;;;;;;;6.60;5.93;;;17.60;99.90;;;;;;5052573;28;20229;-56
2023/08/27 00:35:43;;;;;;;7.30;6.70;;;17.60;99.90;;;;;;5053151;28;20208;-54
2023/08/27 00:38:13;;;;;;;6.00;5.47;;;17.60;99.90;;;;;;5053287;28;20608;-55
2023/08/27 00:40:40;;;;;;;6.63;6.13;;;17.50;99.90;;;;;;5051737;28;20222;-55
2023/08/27 00:43:10;;;;;;;6.10;5.60;;;17.50;99.90;;;;;;5042489;28;20581;-55
2023/08/27 00:45:39;;;;;;;6.30;6.00;;;17.60;99.90;;;;;;5053092;28;20202;-55
2023/08/27 00:48:07;;;;;;;6.40;5.97;;;17.60;99.90;;;;;;5053067;28;20294;-56
2023/08/27 00:50:34;;;;;;;7.47;6.73;;;17.60;99.90;;;;;;5052717;28;20226;-54
2023/08/27 00:53:01;;;;;;;6.10;5.70;;;17.60;99.90;;;;;;5050482;28;20671;-54
2023/08/27 00:55:29;;;;;;;6.53;5.97;;;17.70;99.90;;;;;;5052771;28;20197;-55
2023/08/27 00:57:56;;;;;;;6.67;6.00;;;17.60;99.90;;;;;;5052337;28;20255;-55
2023/08/27 01:00:23;;;;;;;8.50;7.80;;;17.60;99.90;;;;;;5052030;28;20283;-55
2023/08/27 01:02:52;;;;;;;6.03;5.53;;;17.50;99.90;;;;;;5051895;28;20197;-55
2023/08/27 01:05:20;;;;;;;6.23;5.77;;;17.50;99.90;;;;;;5051451;28;20201;-55
2023/08/27 01:07:54;;;;;;;5.83;5.53;;;17.50;99.90;;;;;;5052566;28;20204;-55
2023/08/27 01:10:31;;;;;;;6.37;5.80;;;17.50;99.90;;;;;;5052226;28;20229;-55
2023/08/27 01:13:03;;;;;;;6.40;6.00;;;17.50;99.90;;;;;;5050775;28;20713;-55
2023/08/27 01:15:31;;;;;;;5.00;4.73;;;17.60;99.90;;;;;;5050664;28;20247;-56
2023/08/27 01:18:01;;;;;;;7.07;6.47;;;17.60;99.90;;;;;;5048422;28;20201;-55
2023/08/27 01:20:28;;;;;;;6.93;6.33;;;17.60;99.90;;;;;;5051957;28;20244;-55
2023/08/27 01:22:57;;;;;;;6.70;6.20;;;17.70;99.90;;;;;;5049701;28;20312;-55
2023/08/27 01:25:26;;;;;;;5.30;4.90;;;17.70;99.90;;;;;;5051187;28;20202;-55
2023/08/27 01:28:00;;;;;;;6.03;5.50;;;17.60;99.90;;;;;;5051928;28;20260;-55
2023/08/27 01:30:34;;;;;;;5.20;4.90;;;17.70;99.90;;;;;;5051172;28;20271;-55
2023/08/27 01:33:06;;;;;;;7.33;6.87;;;17.70;99.90;;;;;;5049561;28;20737;-55
2023/08/27 01:35:34;;;;;;;7.23;5.67;;;17.60;99.90;;;;;;5051932;28;20201;-55
2023/08/27 01:38:03;;;;;;;5.10;4.57;;;17.70;99.90;;;;;;5052005;28;20202;-55
2023/08/27 01:40:30;;;;;;;5.83;5.47;;;17.60;99.90;;;;;;5050914;28;20213;-54
2023/08/27 01:42:57;;;;;;;11.23;6.73;;;17.70;99.90;;;;;;5051248;28;20202;-56
2023/08/27 01:45:24;;;;;;;6.63;6.10;;;17.60;99.90;;;;;;5049944;28;20202;-56
2023/08/27 01:47:50;;;;;;;8.13;7.43;;;17.70;99.90;;;;;;5051548;28;20240;-55
2023/08/27 01:50:18;;;;;;;6.67;6.17;;;17.70;99.90;;;;;;5049585;28;20229;-55
2023/08/27 01:52:44;;;;;;;7.00;6.50;;;17.70;99.90;;;;;;5050857;28;20281;-55
2023/08/27 01:55:13;;;;;;;7.07;6.37;;;17.70;99.90;;;;;;5050161;28;21732;-55
2023/08/27 01:57:41;;;;;;;7.67;7.07;;;17.60;99.90;;;;;;5051497;28;20233;-54
2023/08/27 02:00:10;;;;;;;7.77;7.17;;;17.60;99.90;;;;;;5031760;28;20218;-55
2023/08/27 02:02:37;;;;;;;6.73;6.23;;;17.60;99.90;;;;;;5042161;28;20279;-55
2023/08/27 02:05:05;;;;;;;7.57;6.97;;;17.60;99.90;;;;;;5050444;28;20205;-56
2023/08/27 02:07:34;;;;;;;10.67;6.80;;;17.50;99.90;;;;;;5051273;28;20590;-55
2023/08/27 02:10:01;;;;;;;6.50;6.00;;;17.50;99.90;;;;;;5050225;28;20225;-55
2023/08/27 02:12:30;;;;;;;8.50;7.80;;;17.50;99.90;;;;;;5050868;28;20202;-55
2023/08/27 02:14:56;;;;;;;7.50;6.90;;;17.50;99.90;;;;;;5049624;28;20227;-55
2023/08/27 02:17:23;;;;;;;8.07;7.47;;;17.50;99.90;;;;;;5051103;28;20243;-55
2023/08/27 02:19:50;;;;;;;8.20;7.50;;;17.60;99.90;;;;;;5051433;28;20217;-55
2023/08/27 02:22:17;;;;;;;7.37;6.87;;;17.60;99.90;;;;;;5048054;28;20198;-55
2023/08/27 02:24:44;;;;;;;7.83;7.13;;;17.50;99.90;;;;;;5051219;28;20198;-56
2023/08/27 02:27:11;;;;;;;11.47;7.73;;;17.50;99.90;;;;;;5049738;28;20267;-55
2023/08/27 02:29:40;;;;;;;6.77;6.17;;;17.50;99.90;;;;;;5049042;28;20360;-56
2023/08/27 02:32:07;;;;;;;6.87;6.37;;;17.40;99.90;;;;;;5050103;28;20741;-56
2023/08/27 02:34:34;;;;;;;6.23;5.80;;;17.30;99.90;;;;;;5051242;28;20202;-55
2023/08/27 02:37:01;;;;;;;6.53;6.03;;;17.30;99.90;;;;;;5051156;28;20343;-56
2023/08/27 02:39:28;;;;;;;5.90;5.50;;;17.40;99.90;;;;;;5049181;28;20594;-55
2023/08/27 02:41:55;;;;;;;6.77;6.17;;;17.40;99.90;;;;;;5050673;28;20209;-56
2023/08/27 02:44:22;;;;;;;6.33;5.73;;;17.40;99.90;;;;;;5050312;28;20232;-55
2023/08/27 02:46:50;;;;;;;5.67;5.37;;;17.40;99.90;;;;;;5049588;28;20198;-55
2023/08/27 02:49:17;;;;;;;6.13;5.67;;;17.40;99.90;;;;;;5051132;28;20279;-56
2023/08/27 02:51:44;;;;;;;5.20;4.90;;;17.40;99.90;;;;;;5049002;28;20225;-55
2023/08/27 02:54:11;;;;;;;5.13;4.70;;;17.40;99.90;;;;;;5049335;28;20210;-55
2023/08/27 02:56:38;;;;;;;5.00;4.70;;;17.30;99.90;;;;;;5049657;28;20659;-56
2023/08/27 02:59:05;;;;;;;4.97;4.67;;;17.30;99.90;;;;;;5050493;28;20218;-56
2023/08/27 03:01:32;;;;;;;4.10;3.90;;;17.30;99.90;;;;;;5050685;28;20687;-55
2023/08/27 03:04:00;;;;;;;4.07;3.73;;;17.30;99.90;;;;;;5048074;28;20206;-55
2023/08/27 03:06:27;;;;;;;4.00;3.80;;;17.30;99.90;;;;;;5048951;28;20263;-54
2023/08/27 03:08:54;;;;;;;4.23;3.93;;;17.40;99.90;;;;;;5050536;28;20279;-55
2023/08/27 03:11:21;;;;;;;3.63;3.33;;;17.40;99.90;;;;;;5050830;28;20225;-55
2023/08/27 03:13:49;;;;;;;2.77;2.67;;;17.30;99.90;;;;;;5050068;28;20212;-55
2023/08/27 03:16:16;;;;;;;1.80;1.70;;;17.40;99.90;;;;;;5049408;28;20236;-56
2023/08/27 03:18:43;;;;;;;2.00;1.90;;;17.30;99.90;;;;;;5049546;28;20279;-55
2023/08/27 03:21:11;;;;;;;1.27;1.27;;;17.30;99.90;;;;;;5052055;28;20239;-56
2023/08/27 03:23:38;;;;;;;2.20;1.00;;;17.30;99.90;;;;;;5052770;28;20198;-55
2023/08/27 03:26:05;;;;;;;1.13;1.00;;;17.20;99.90;;;;;;5053612;28;20209;-55
2023/08/27 03:28:32;;;;;;;2.27;1.30;;;17.30;99.90;;;;;;5053473;28;20209;-55
2023/08/27 03:31:02;;;;;;;2.30;0.70;;;17.40;99.90;;;;;;5054001;28;20707;-55
2023/08/27 03:33:31;;;;;;;1.53;0.77;;;17.40;99.90;;;;;;5053825;28;20850;-55
2023/08/27 03:35:59;;;;;;;1.43;1.33;;;17.40;99.90;;;;;;5052460;28;20197;-55
2023/08/27 03:38:27;;;;;;;0.87;0.63;;;17.30;99.90;;;;;;5054037;28;20201;-55
2023/08/27 03:40:54;;;;;;;1.27;0.70;;;17.30;99.90;;;;;;5053628;28;20205;-56
2023/08/27 03:43:22;;;;;;;0.63;0.50;;;17.20;99.90;;;;;;5053461;28;20193;-55
2023/08/27 03:45:48;;;;;;;1.40;0.60;;;17.20;99.90;;;;;;5052955;28;20696;-55
2023/08/27 03:48:15;;;;;;;0.70;0.70;;;17.20;99.90;;;;;;5054016;28;20210;-55
2023/08/27 03:50:42;;;;;;;0.50;0.40;;;17.10;99.90;;;;;;5052206;28;20218;-56
2023/08/27 03:53:12;;;;;;;0.60;0.60;;;17.10;99.90;;;;;;5047569;28;20293;-55
2023/08/27 03:55:41;;;;;;;0.83;0.70;;;17.00;99.90;;;;;;5054177;28;20201;-55
2023/08/27 03:58:09;;;;;;;0.63;0.60;;;17.00;99.90;;;;;;5054098;28;20255;-55
2023/08/27 04:00:36;;;;;;;1.20;0.90;;;17.00;99.90;;;;;;5051618;28;20217;-55
2023/08/27 04:03:04;;;;;;;1.77;0.60;;;17.00;99.90;;;;;;5052385;28;20544;-55
2023/08/27 04:05:32;;;;;;;0.70;0.70;;;17.00;99.90;;;;;;5052338;28;20198;-55
2023/08/27 04:07:59;;;;;;;0.90;0.90;;;17.00;99.90;;;;;;5053727;28;20252;-54
2023/08/27 04:10:25;;;;;;;0.63;0.50;;;17.00;99.90;;;;;;5053368;28;20280;-53
2023/08/27 04:12:55;;;;;;;1.90;0.40;;;16.90;99.90;;;;;;5052825;28;20275;-54
2023/08/27 04:15:22;;;;;;;0.40;0.40;;;16.90;99.90;;;;;;5053522;28;20291;-53
2023/08/27 04:17:49;;;;;;;1.57;0.70;;;17.00;99.90;;;;;;5053455;28;20210;-54
2023/08/27 04:20:17;;;;;;;0.50;0.50;;;16.90;99.90;;;;;;5059334;28;20213;-53
2023/08/27 04:22:44;;;;;;;2.40;1.20;;;16.90;99.90;;;;;;5049861;28;20680;-54
2023/08/27 04:25:15;;;;;;;1.80;1.70;;;16.90;99.90;;;;;;5053431;28;20198;-54
2023/08/27 04:27:41;;;;;;;1.47;1.27;;;16.80;99.90;;;;;;5053308;28;20206;-53
2023/08/27 04:30:11;;;;;;;0.83;0.83;;;16.80;99.90;;;;;;5052895;28;20730;-53
2023/08/27 04:32:38;;;;;;;0.80;0.60;;;16.80;99.90;;;;;;5051734;28;20590;-53
2023/08/27 04:35:06;;;;;;;2.20;0.50;;;16.70;99.90;;;;;;5053326;28;20279;-53
2023/08/27 04:37:33;;;;;;;1.23;1.23;;;16.70;99.90;;;;;;5051402;28;21822;-53
2023/08/27 04:40:00;;;;;;;1.10;0.60;;;16.70;99.90;;;;;;5052791;28;20221;-53
2023/08/27 04:42:27;;;;;;;0.70;0.70;;;16.70;99.90;;;;;;5052233;28;20205;-53
2023/08/27 04:44:54;;;;;;;0.73;0.63;;;16.70;99.90;;;;;;5053164;28;20419;-54
2023/08/27 04:47:22;;;;;;;4.23;0.70;;;16.70;99.90;;;;;;5050815;28;20339;-53
2023/08/27 04:49:49;;;;;;;0.90;0.43;;;16.60;99.90;;;;;;5052761;28;20222;-53
2023/08/27 04:52:16;;;;;;;2.83;0.50;;;16.60;99.90;;;;;;5052243;28;20283;-53
2023/08/27 04:54:43;;;;;;;0.60;0.60;;;16.60;99.90;;;;;;5051912;28;20661;-53
2023/08/27 04:57:10;;;;;;;0.50;0.50;;;16.60;99.90;;;;;;5052585;28;20285;-53
2023/08/27 04:59:37;;;;;;;0.90;0.40;;;16.70;99.90;;;;;;5052799;28;20275;-53
2023/08/27 05:02:04;;;;;;;1.47;0.40;;;16.70;99.90;;;;;;5052611;28;20201;-53
2023/08/27 05:04:33;;;;;;;0.50;0.50;;;16.70;99.90;;;;;;5052020;28;20244;-53
2023/08/27 05:07:00;;;;;;;0.40;0.40;;;16.80;99.90;;;;;;5033861;28;20209;-54
2023/08/27 05:09:27;;;;;;;0.50;0.50;;;16.70;99.90;;;;;;5032457;28;20234;-53
2023/08/27 05:11:54;;;;;;;0.80;0.80;;;16.70;99.90;;;;;;5043626;28;20244;-53
2023/08/27 05:14:21;;;;;;;1.20;0.50;;;16.70;99.90;;;;;;5051609;28;20201;-53
2023/08/27 05:16:48;;;;;;;0.73;0.50;;;16.60;99.90;;;;;;5052389;28;20202;-53
2023/08/27 05:19:15;;;;;;;1.10;0.97;;;16.70;99.90;;;;;;5052222;28;20276;-53
2023/08/27 05:21:43;;;;;;;0.80;0.80;;;16.60;99.90;;;;;;5051382;28;20201;-53
2023/08/27 05:24:10;;;;;;;1.47;0.70;;;16.60;99.90;;;;;;5051586;28;20602;-53
2023/08/27 05:26:37;;;;;;;0.83;0.63;;;16.60;99.90;;;;;;5052403;28;20201;-54
2023/08/27 05:29:04;;;;;;;0.77;0.70;;;16.60;99.90;;;;;;5050366;28;20226;-53
2023/08/27 05:31:31;;;;;;;0.60;0.60;;;16.60;99.90;;;;;;5052244;28;20221;-54
2023/08/27 05:33:58;;;;;;;0.40;0.40;;;16.60;99.90;;;;;;5051289;28;20652;-55
2023/08/27 05:36:26;;;;;;;0.40;0.40;;;16.60;99.90;;;;;;5052480;28;20280;-54
2023/08/27 05:38:54;;;;;;;0.83;0.80;;;16.50;99.90;;;;;;5032279;28;20222;-54
2023/08/27 05:41:21;;;;;;;2.20;0.80;;;16.50;99.90;;;;;;5032773;28;20199;-54
2023/08/27 05:43:49;;;;;;;0.83;0.83;;;16.50;99.90;;;;;;5050362;28;20271;-53
2023/08/27 05:46:16;;;;;;;0.90;0.70;;;16.50;99.90;;;;;;5046752;28;20263;-54
2023/08/27 05:48:43;;;;;;;1.00;1.00;;;16.40;99.90;;;;;;5044211;28;20764;-53
2023/08/27 05:51:10;;;;;;;1.83;0.67;;;16.50;99.90;;;;;;5051497;28;20764;-53
2023/08/27 05:53:38;;;;;;;1.00;1.00;;;16.50;99.90;;;;;;5051072;28;20205;-53
2023/08/27 05:56:06;;;;;;;0.87;0.70;;;16.50;99.90;;;;;;5059970;28;20197;-55
2023/08/27 05:58:33;;;;;;;1.70;0.80;;;16.60;99.90;;;;;;5052597;28;20224;-56
2023/08/27 06:01:02;;;;;;;2.40;1.43;;;16.60;99.90;;;;;;5048507;28;20194;-55
2023/08/27 06:03:29;;;;;;;2.07;1.07;;;16.50;99.90;;;;;;5054347;28;20197;-54
2023/08/27 06:05:56;;;;;;;0.83;0.67;;;16.50;99.90;;;;;;5056451;28;20589;-55
2023/08/27 06:08:23;;;;;;;1.40;0.50;;;16.60;99.90;;;;;;5051303;28;20190;-55
2023/08/27 06:10:50;;;;;;;0.77;0.77;;;16.60;99.90;;;;;;5051350;28;20698;-55
2023/08/27 06:13:19;;;;;;;0.50;0.50;;;16.60;99.90;;;;;;5050739;28;20205;-55
2023/08/27 06:15:46;;;;;;;1.27;0.67;;;16.50;99.90;;;;;;5050552;28;20303;-55
2023/08/27 06:18:15;;;;;;;2.40;0.60;;;16.40;99.90;;;;;;5051922;28;20225;-55
2023/08/27 06:20:42;;;;;;;0.67;0.67;;;16.40;99.90;;;;;;5051348;28;20284;-55
2023/08/27 06:23:09;;;;;;;1.07;1.07;;;16.40;99.90;;;;;;5043132;28;20760;-55
2023/08/27 06:25:37;;;;;;;1.70;0.70;;;16.30;99.90;;;;;;5031364;28;20291;-55
2023/08/27 06:28:05;;;;;;;0.60;0.50;;;16.40;99.90;;;;;;5050290;28;20692;-55
2023/08/27 06:30:33;;;;;;;0.70;0.70;;;16.40;99.90;;;;;;5051113;28;20661;-55
2023/08/27 06:33:00;;;;;;;0.60;0.60;;;16.40;99.90;;;;;;5050357;28;20225;-55
2023/08/27 06:35:28;;;;;;;1.00;1.00;;;16.40;99.90;;;;;;5051152;28;20201;-54
2023/08/27 06:37:55;;;;;;;0.67;0.60;;;16.30;99.90;;;;;;5051033;28;20201;-55
2023/08/27 06:40:22;;;;;;;1.47;0.83;;;16.40;99.90;;;;;;5039396;28;20222;-56
2023/08/27 06:42:49;;;;;;;0.53;0.53;;;16.40;99.90;;;;;;5031438;28;20348;-55
2023/08/27 06:45:16;;;;;;;1.67;0.53;;;16.50;99.90;;;;;;5038810;28;20210;-55
2023/08/27 06:47:45;;;;;;;0.50;0.50;;;16.50;99.90;;;;;;5044297;28;20256;-55
2023/08/27 06:50:12;;;;;;;0.40;0.40;;;16.60;99.90;;;;;;5049983;28;20221;-55
2023/08/27 06:52:39;;;;;;;1.70;0.83;;;16.50;99.90;;;;;;5049980;28;20217;-55
2023/08/27 06:55:06;;;;;;;1.00;0.73;;;16.50;99.90;;;;;;5048208;28;20213;-55
2023/08/27 06:57:33;;;;;;;0.60;0.50;;;16.50;99.90;;;;;;5054751;28;20201;-55
2023/08/27 07:00:01;;;;;;;0.40;0.40;;;16.50;99.90;;;;;;5055039;28;20308;-55
2023/08/27 07:02:28;;;;;;;0.40;0.40;;;16.40;99.90;;;;;;5054104;28;20651;-55
2023/08/27 07:04:57;;;;;;;0.40;0.40;;;16.60;99.90;;;;;;5053856;28;20287;-56
2023/08/27 07:07:24;;;;;;;1.53;0.40;;;16.70;99.90;;;;;;5050602;28;20602;-55
2023/08/27 07:09:51;;;;;;;0.37;0.37;;;16.70;99.90;;;;;;5054707;28;20230;-55
2023/08/27 07:12:19;;;;;;;2.23;0.50;;;16.70;99.90;;;;;;5054009;28;20283;-54
2023/08/27 07:14:46;;;;;;;1.37;0.50;;;16.80;99.90;;;;;;5054764;28;20379;-54
2023/08/27 07:17:14;;;;;;;0.40;0.33;;;16.70;99.90;;;;;;5053659;28;20668;-56
2023/08/27 07:19:41;;;;;;;0.40;0.40;;;16.70;99.90;;;;;;5054405;28;20226;-56
2023/08/27 07:22:10;;;;;;;0.43;0.43;;;16.80;99.90;;;;;;5052945;28;20251;-54
2023/08/27 07:24:37;;;;;;;0.40;0.40;;;16.70;99.90;;;;;;5054827;28;20293;-55
2023/08/27 07:27:04;;;;;;;0.97;0.60;;;16.80;99.90;;;;;;5056831;28;20204;-55
2023/08/27 07:29:32;;;;;;;1.17;0.90;;;16.80;99.90;;;;;;5063830;28;20278;-56
2023/08/27 07:32:00;;;;;;;0.50;0.50;;;16.80;99.90;;;;;;5035394;28;20278;-56
2023/08/27 07:34:27;;;;;;;0.93;0.80;;;16.80;99.90;;;;;;5050344;28;20201;-55
2023/08/27 07:36:55;;;;;;;0.83;0.40;;;16.80;99.90;;;;;;5051545;28;20224;-55
2023/08/27 07:39:23;;;;;;;0.43;0.43;;;16.60;99.90;;;;;;5057464;28;20255;-56
2023/08/27 07:41:51;;;;;;;0.40;0.40;;;16.60;99.90;;;;;;5052153;28;20201;-55
2023/08/27 07:44:18;;;;;;;1.27;0.60;;;16.60;99.90;;;;;;5059668;28;20578;-56
2023/08/27 07:46:45;;;;;;;1.67;0.47;;;16.50;99.90;;;;;;5070272;28;20246;-55
2023/08/27 07:49:12;;;;;;;0.40;0.40;;;16.50;99.90;;;;;;5074207;28;20653;-56
2023/08/27 07:51:39;;;;;;;0.50;0.50;;;16.40;99.90;;;;;;5065531;28;20248;-54
2023/08/27 07:54:06;;;;;;;0.53;0.37;;;16.30;99.90;;;;;;5056401;28;20231;-56
2023/08/27 07:56:34;;;;;;;0.50;0.50;;;16.40;99.90;;;;;;5059360;28;20733;-54
2023/08/27 07:59:02;;;;;;;0.40;0.40;;;16.30;99.90;;;;;;5051095;28;20225;-55
2023/08/27 08:01:29;;;;;;;0.70;0.60;;;16.20;99.90;;;;;;5053048;28;20652;-55
2023/08/27 08:03:56;;;;;;;0.70;0.63;;;16.30;99.90;;;;;;5052757;28;20201;-55
2023/08/27 08:06:23;;;;;;;0.70;0.70;;;16.20;99.90;;;;;;5053830;28;20201;-56
2023/08/27 08:08:50;;;;;;;1.43;0.93;;;16.20;99.90;;;;;;5050790;28;20781;-55
2023/08/27 08:11:17;;;;;;;1.70;0.60;;;16.20;99.90;;;;;;5053137;28;20237;-55
2023/08/27 08:13:46;;;;;;;0.77;0.77;;;16.20;99.90;;;;;;5051423;28;20224;-54
2023/08/27 08:16:13;;;;;;;1.57;0.90;;;16.10;99.90;;;;;;5038391;28;20206;-55
2023/08/27 08:18:40;;;;;;;0.93;0.60;;;16.20;99.90;;;;;;5032800;28;20627;-54
2023/08/27 08:21:07;;;;;;;1.70;0.93;;;16.10;99.90;;;;;;5033309;28;20297;-55
2023/08/27 08:23:34;;;;;;;0.70;0.60;;;16.00;99.90;;;;;;5032806;28;20202;-54
2023/08/27 08:26:01;;;;;;;0.50;0.50;;;16.00;99.90;;;;;;5043425;28;20687;-54
2023/08/27 08:28:28;;;;;;;0.90;0.90;;;16.00;99.90;;;;;;5053199;28;20209;-55
2023/08/27 08:30:57;;;;;;;1.53;0.80;;;15.90;99.90;;;;;;5053378;28;20259;-55
2023/08/27 08:33:24;;;;;;;1.00;0.67;;;15.90;99.90;;;;;;5049080;28;20229;-55
2023/08/27 08:35:51;;;;;;;1.90;0.67;;;16.00;99.90;;;;;;5049037;28;20259;-56
2023/08/27 08:38:18;;;;;;;0.60;0.33;;;15.80;99.90;;;;;;5047827;28;20228;-55
2023/08/27 08:40:49;;;;;;;1.60;0.50;;;15.80;99.90;;;;;;5049131;28;20659;-56
2023/08/27 08:43:24;;;;;;;1.17;0.50;;;15.80;99.90;;;;;;5049617;28;20218;-54
2023/08/27 08:46:03;;;;;;;1.70;0.57;;;15.70;99.90;;;;;;5052822;28;20255;-55
2023/08/27 08:48:33;;;;;;;0.50;0.50;;;15.70;99.90;;;;;;5043459;28;20451;-55
2023/08/27 08:51:07;;;;;;;2.37;0.50;;;15.70;99.90;;;;;;5049028;28;20267;-56
2023/08/27 08:53:39;;;;;;;2.20;0.53;;;15.70;99.90;;;;;;5049969;28;20226;-55
2023/08/27 08:56:09;;;;;;;1.67;0.40;;;15.60;99.90;;;;;;5044561;28;20209;-55
2023/08/27 08:58:38;;;;;;;1.07;0.57;;;15.60;99.90;;;;;;5048404;28;20208;-61
2023/08/27 09:01:07;;;;;;;1.97;1.53;;;15.50;99.90;;;;;;5041146;28;20197;-61
2023/08/27 09:03:35;;;;;;;0.70;0.37;;;15.50;99.90;;;;;;5042478;28;20251;-53
2023/08/27 09:06:04;;;;;;;0.97;0.40;;;15.50;99.90;;;;;;5044103;28;20205;-61
2023/08/27 09:08:39;;;;;;;1.13;1.13;;;15.50;99.90;;;;;;5040976;28;20205;-60
2023/08/27 09:11:06;;;;;;;1.43;0.50;;;15.50;99.90;;;;;;5041013;28;20197;-61
2023/08/27 09:13:35;;;;;;;3.97;1.63;;;15.50;99.90;;;;;;5042090;28;20244;-61
2023/08/27 09:16:02;;;;;;;1.23;0.70;;;15.50;99.90;;;;;;5047067;28;20205;-60
2023/08/27 09:18:31;;;;;;;4.10;1.77;;;15.40;99.90;;;;;;5049411;28;20198;-59
2023/08/27 09:21:00;;;;;;;0.50;0.50;;;15.40;99.90;;;;;;5049915;28;20201;-59
2023/08/27 09:23:29;;;;;;;1.63;0.60;;;15.50;99.90;;;;;;5049070;28;20198;-60
2023/08/27 09:26:01;;;;;;;0.60;0.60;;;15.40;99.90;;;;;;5049082;28;20347;-61
2023/08/27 09:28:28;;;;;;;2.10;0.73;;;15.40;99.90;;;;;;5047869;28;20305;-61
2023/08/27 09:30:56;;;;;;;1.60;0.57;;;15.40;99.90;;;;;;5049352;28;20217;-61
2023/08/27 09:33:39;;;;;;;0.60;0.60;;;15.40;99.90;;;;;;5040497;28;20714;-61
2023/08/27 09:36:08;;;;;;;0.87;0.40;;;15.40;99.90;;;;;;5047978;28;20227;-60
2023/08/27 09:38:35;;;;;;;0.50;0.50;;;15.30;99.90;;;;;;5011139;28;20335;-61
2023/08/27 09:41:13;;;;;;;1.27;0.60;;;15.30;99.90;;;;;;4999793;28;20207;-62
2023/08/27 09:43:40;;;;;;;0.97;0.40;;;15.30;99.90;;;;;;5004435;28;20555;-62
2023/08/27 09:46:11;;;;;;;0.53;0.53;;;15.30;99.90;;;;;;5002781;28;20257;-62
2023/08/27 09:48:40;;;;;;;1.53;0.40;;;15.20;99.90;;;;;;5008861;28;20227;-60
2023/08/27 09:51:07;;;;;;;2.47;0.90;;;15.20;99.90;;;;;;5005158;28;20199;-62
2023/08/27 09:53:35;;;;;;;1.43;0.50;;;15.20;99.90;;;;;;5008505;28;20231;-61
2023/08/27 09:56:05;;;;;;;0.63;0.47;;;15.30;99.90;;;;;;5002328;28;20646;-62
2023/08/27 09:58:32;;;;;;;1.43;0.80;;;15.20;99.90;;;;;;5009324;28;20254;-61
2023/08/27 10:01:01;;;;;;;0.57;0.57;;;15.20;99.90;;;;;;5009473;28;20210;-62
2023/08/27 10:03:30;;;;;;;1.10;0.50;;;15.20;99.90;;;;;;5008701;28;20191;-61
2023/08/27 10:06:01;;;;;;;1.17;0.63;;;15.20;99.90;;;;;;5008241;28;20273;-60
2023/08/27 10:08:28;;;;;;;1.13;0.80;;;15.20;99.90;;;;;;5000975;28;20210;-60
2023/08/27 10:11:07;;;;;;;0.90;0.40;;;15.20;99.90;;;;;;4997930;28;20203;-63
2023/08/27 10:13:34;;;;;;;2.10;0.60;;;15.20;99.90;;;;;;5009164;28;20230;-64
2023/08/27 10:16:02;;;;;;;1.10;0.50;;;15.20;99.90;;;;;;5006087;28;20750;-60
2023/08/27 10:18:30;;;;;;;1.70;0.77;;;15.30;99.90;;;;;;5007706;28;20699;-61
2023/08/27 10:21:00;;;;;;;0.40;0.40;;;15.20;99.90;;;;;;5003857;28;20203;-61
2023/08/27 10:23:29;;;;;;;1.07;0.40;;;15.20;99.90;;;;;;5004255;28;20285;-62
2023/08/27 10:25:58;;;;;;;0.50;0.50;;;15.20;99.90;;;;;;5007635;28;20203;-54
2023/08/27 10:28:27;;;;;;;0.70;0.60;;;15.30;99.90;;;;;;5000992;28;20706;-54
2023/08/27 10:30:58;;;;;;;1.33;0.70;;;15.30;99.90;;;;;;4997622;28;20262;-56
2023/08/27 10:33:25;;;;;;;0.80;0.80;;;15.30;99.90;;;;;;5006272;28;20718;-55
2023/08/27 10:35:53;;;;;;;0.80;0.50;;;15.40;99.90;;;;;;5005022;28;20290;-54
2023/08/27 10:38:25;;;;;;;1.20;0.90;;;15.40;99.90;;;;;;5002529;28;20200;-54
2023/08/27 10:40:52;;;;;;;0.30;0.30;;;15.40;99.90;;;;;;5006339;28;20258;-56
2023/08/27 10:43:21;;;;;;;1.80;0.43;;;15.30;99.90;;;;;;5006486;28;20658;-54
2023/08/27 10:45:48;;;;;;;0.20;0.20;;;15.30;99.90;;;;;;4996625;28;20668;-55
2023/08/27 10:48:30;;;;;;;3.60;0.93;;;15.30;99.90;;;;;;5002316;28;20207;-58
2023/08/27 10:51:11;;;;;;;0.83;0.40;;;15.30;99.90;;;;;;5004901;28;20195;-64
2023/08/27 10:53:56;;;;;;;2.33;1.00;;;15.30;99.90;;;;;;5000102;28;20233;-62
2023/08/27 10:56:31;;;;;;;0.50;0.50;;;15.20;99.90;;;;;;5008613;28;20573;-63
2023/08/27 10:58:59;;;;;;;0.63;0.30;;;15.30;99.90;;;;;;5002245;28;20222;-62
2023/08/27 11:01:26;;;;;;;0.30;0.30;;;15.20;99.90;;;;;;5021078;28;20203;-63
2023/08/27 11:03:58;;;;;;;1.27;0.30;;;15.30;99.90;;;;;;5030383;28;20202;-61
2023/08/27 11:06:49;;;;;;;0.23;0.23;;;15.30;99.90;;;;;;5030864;28;20207;-63
2023/08/27 11:09:20;;;;;;;0.30;0.30;;;15.20;99.90;;;;;;4987454;28;20700;-64
2023/08/27 11:11:49;;;;;;;0.63;0.40;;;15.20;99.90;;;;;;5010857;28;20246;-64
2023/08/27 11:14:17;;;;;;;0.87;0.40;;;15.20;99.90;;;;;;5001543;28;20322;-63
2023/08/27 11:16:46;;;;;;;0.80;0.70;;;15.20;99.90;;;;;;5000239;28;20266;-65
2023/08/27 11:19:14;;;;;;;0.80;0.40;;;15.20;99.90;;;;;;4999745;28;20234;-65
2023/08/27 11:21:48;;;;;;;0.50;0.40;;;15.20;99.90;;;;;;5000121;28;20299;-62
2023/08/27 11:24:23;;;;;;;0.70;0.70;;;15.20;99.90;;;;;;4999420;28;20199;-64
2023/08/27 11:26:51;;;;;;;0.53;0.53;;;15.20;99.90;;;;;;5001458;28;20249;-63
2023/08/27 11:29:18;;;;;;;0.53;0.53;;;15.20;99.90;;;;;;5007604;28;20300;-60
2023/08/27 11:31:47;;;;;;;0.43;0.40;;;15.10;99.90;;;;;;4998260;28;20781;-61
2023/08/27 11:34:15;;;;;;;0.87;0.70;;;15.20;99.90;;;;;;5000127;28;20748;-62
2023/08/27 11:36:43;;;;;;;0.43;0.43;;;15.30;99.90;;;;;;4999828;28;20199;-60
2023/08/27 11:39:11;;;;;;;1.10;0.63;;;15.30;99.90;;;;;;4998047;28;20256;-62
2023/08/27 11:41:41;;;;;;;0.50;0.50;;;15.30;99.90;;;;;;5000112;28;20298;-62
2023/08/27 11:44:11;;;;;;;1.10;1.00;;;15.30;99.90;;;;;;4994106;28;20215;-62
2023/08/27 11:46:39;;;;;;;0.77;0.40;;;15.40;99.90;;;;;;5009642;28;20202;-60
2023/08/27 11:49:07;;;;;;;0.53;0.40;;;15.40;99.90;;;;;;5011068;28;20234;-60
2023/08/27 11:51:35;;;;;;;0.80;0.70;;;15.40;99.90;;;;;;5012945;28;20369;-61
2023/08/27 11:54:06;;;;;;;2.83;0.70;;;15.50;99.90;;;;;;5012472;28;20281;-61
2023/08/27 11:56:35;;;;;;;0.83;0.40;;;15.50;99.90;;;;;;5012339;28;20211;-62
2023/08/27 11:59:05;;;;;;;0.60;0.60;;;15.50;99.90;;;;;;5012288;28;20373;-60
2023/08/27 12:01:33;;;;;;;0.30;0.30;;;15.60;99.90;;;;;;5012944;28;20247;-61
2023/08/27 12:04:01;;;;;;;0.60;0.30;;;15.60;99.90;;;;;;5009588;28;20203;-61
2023/08/27 12:06:30;;;;;;;0.27;0.27;;;15.60;99.90;;;;;;5009745;28;20231;-62
2023/08/27 12:08:57;;;;;;;0.23;0.23;;;15.60;99.90;;;;;;5010756;28;20260;-61
2023/08/27 12:11:27;;;;;;;0.27;0.23;;;15.60;99.90;;;;;;5013982;28;20199;-62
2023/08/27 12:13:57;;;;;;;0.70;0.30;;;15.60;99.90;;;;;;5025779;28;20585;-61
2023/08/27 12:16:33;;;;;;;0.30;0.20;;;15.70;99.90;;;;;;5023393;28;20632;-61
2023/08/27 12:19:03;;;;;;;0.37;0.30;;;15.80;99.90;;;;;;5002532;28;20324;-60
2023/08/27 12:21:34;;;;;;;0.40;0.30;;;15.80;99.90;;;;;;5006030;28;20214;-62
2023/08/27 12:24:02;;;;;;;0.30;0.30;;;15.90;99.90;;;;;;5002135;28;20281;-63
2023/08/27 12:26:32;;;;;;;0.53;0.40;;;16.00;99.90;;;;;;5001382;28;20204;-60
2023/08/27 12:28:59;;;;;;;1.83;0.57;;;16.10;99.90;;;;;;5000169;28;20297;-56
2023/08/27 12:31:27;;;;;;;0.60;0.60;;;16.20;99.90;;;;;;5008289;28;20736;-54
2023/08/27 12:34:00;;;;;;;0.40;0.30;;;16.30;99.90;;;;;;5005468;28;20226;-54
2023/08/27 12:36:28;;;;;;;1.03;0.30;;;16.40;99.90;;;;;;4999228;28;20297;-54
2023/08/27 12:38:55;;;;;;;1.30;0.40;;;16.40;99.90;;;;;;5007210;28;20297;-54
2023/08/27 12:41:23;;;;;;;0.83;0.50;;;16.40;99.90;;;;;;5005149;28;20257;-54
2023/08/27 12:43:52;;;;;;;0.83;0.37;;;16.50;99.90;;;;;;5004940;28;20203;-56
2023/08/27 12:46:20;;;;;;;0.40;0.40;;;16.50;99.90;;;;;;5006509;28;20203;-55
2023/08/27 12:48:48;;;;;;;0.53;0.30;;;16.50;99.90;;;;;;5009277;28;20238;-55
2023/08/27 12:51:17;;;;;;;0.40;0.33;;;16.50;99.90;;;;;;5011072;28;20314;-56